HXA779 ZGHA-ZSHC
Flight info
| Callsign | HXA779 |
|---|---|
| Flight time | N/A |
| Altitude | 31100 |
| Route | PAT7W PATVO P645 TXN G204 OREXA ORE81A |
| Aircraft | A20N/M-SDE2E3GHIJ1J3J4J5LM1ORWXYZ/LB1D1 |
Departure
| Time | N/A |
|---|---|
| Airport | Changsha Huanghua International Airport (ZGHA) |
Arrival
| Time | 2026-05-04 15:32 |
|---|---|
| Airport | Hangzhou Xiaoshan International Airport (ZSHC) |
| Time | Latitude | Longitude | Altitude | Speed | Heading |
|---|---|---|---|---|---|
| 2026-05-04 14:52 | 29.93348 | 118.04310 | 19744 ft | 425 kts | 344° |
| 2026-05-04 14:52 | 29.96170 | 118.03390 | 19744 ft | 425 kts | 344° |
| 2026-05-04 14:52 | 29.99015 | 118.02462 | 19744 ft | 425 kts | 344° |
| 2026-05-04 14:53 | 30.01859 | 118.01534 | 19744 ft | 425 kts | 344° |
| 2026-05-04 14:53 | 30.04708 | 118.00604 | 19744 ft | 425 kts | 344° |
| 2026-05-04 14:53 | 30.07545 | 117.99673 | 19743 ft | 425 kts | 343° |
| 2026-05-04 14:53 | 30.10244 | 117.98360 | 19736 ft | 426 kts | 330° |
| 2026-05-04 14:54 | 30.12386 | 117.96577 | 19741 ft | 427 kts | 319° |
| 2026-05-04 14:54 | 30.14344 | 117.94013 | 19744 ft | 429 kts | 306° |
| 2026-05-04 14:54 | 30.15737 | 117.90990 | 19746 ft | 431 kts | 292° |
| 2026-05-04 14:54 | 30.16500 | 117.87627 | 19747 ft | 434 kts | 279° |
| 2026-05-04 14:55 | 30.16568 | 117.84122 | 19742 ft | 437 kts | 265° |
| 2026-05-04 14:55 | 30.15698 | 117.80788 | 19746 ft | 441 kts | 245° |
| 2026-05-04 14:55 | 30.14435 | 117.78371 | 19744 ft | 443 kts | 234° |
| 2026-05-04 14:55 | 30.12228 | 117.75859 | 19740 ft | 446 kts | 216° |
| 2026-05-04 14:56 | 30.09452 | 117.74255 | 19738 ft | 449 kts | 198° |
| 2026-05-04 14:56 | 30.06379 | 117.73740 | 19734 ft | 450 kts | 179° |
| 2026-05-04 14:56 | 30.03346 | 117.74345 | 19730 ft | 449 kts | 161° |
| 2026-05-04 14:56 | 30.00580 | 117.76017 | 19726 ft | 448 kts | 142° |
| 2026-05-04 14:57 | 29.98420 | 117.78554 | 19724 ft | 445 kts | 124° |
| 2026-05-04 14:57 | 29.96783 | 117.81562 | 19735 ft | 444 kts | 119° |
| 2026-05-04 14:57 | 29.95221 | 117.84660 | 19736 ft | 444 kts | 118° |
| 2026-05-04 14:57 | 29.93667 | 117.87743 | 19737 ft | 444 kts | 119° |
| 2026-05-04 14:58 | 29.92112 | 117.90786 | 19739 ft | 444 kts | 119° |
| 2026-05-04 14:58 | 29.90535 | 117.93832 | 19740 ft | 444 kts | 120° |
| 2026-05-04 14:58 | 29.89478 | 117.95855 | 19739 ft | 444 kts | 120° |
| 2026-05-04 14:59 | 29.85586 | 118.03200 | 19742 ft | 444 kts | 120° |
| 2026-05-04 14:59 | 29.83977 | 118.06236 | 19742 ft | 444 kts | 120° |
| 2026-05-04 14:59 | 29.80773 | 118.12290 | 19742 ft | 444 kts | 120° |
| 2026-05-04 15:00 | 29.79161 | 118.15337 | 19739 ft | 443 kts | 120° |
| 2026-05-04 15:00 | 29.77579 | 118.18324 | 19493 ft | 437 kts | 120° |
| 2026-05-04 15:00 | 29.76002 | 118.21301 | 18783 ft | 434 kts | 120° |
| 2026-05-04 15:01 | 29.73728 | 118.27570 | 17384 ft | 422 kts | 101° |
| 2026-05-04 15:01 | 29.73270 | 118.30862 | 16741 ft | 416 kts | 95° |
| 2026-05-04 15:01 | 29.72973 | 118.34141 | 16075 ft | 411 kts | 94° |
| 2026-05-04 15:01 | 29.72707 | 118.37376 | 15402 ft | 407 kts | 94° |
| 2026-05-04 15:02 | 29.72437 | 118.40595 | 14934 ft | 402 kts | 94° |
| 2026-05-04 15:02 | 29.72162 | 118.43773 | 14771 ft | 402 kts | 94° |
| 2026-05-04 15:02 | 29.71878 | 118.46972 | 14769 ft | 403 kts | 95° |
| 2026-05-04 15:02 | 29.71587 | 118.50211 | 14770 ft | 404 kts | 95° |
| 2026-05-04 15:03 | 29.71296 | 118.53412 | 14774 ft | 404 kts | 95° |
| 2026-05-04 15:03 | 29.71004 | 118.56610 | 14779 ft | 404 kts | 95° |
| 2026-05-04 15:03 | 29.70710 | 118.59811 | 14784 ft | 404 kts | 95° |
| 2026-05-04 15:03 | 29.70413 | 118.63024 | 14788 ft | 404 kts | 95° |
| 2026-05-04 15:04 | 29.70115 | 118.66254 | 14791 ft | 404 kts | 95° |
| 2026-05-04 15:04 | 29.69912 | 118.68446 | 14793 ft | 404 kts | 95° |
| 2026-05-04 15:04 | 29.69646 | 118.71339 | 14794 ft | 404 kts | 95° |
| 2026-05-04 15:04 | 29.69360 | 118.74514 | 14796 ft | 404 kts | 95° |
| 2026-05-04 15:05 | 29.69069 | 118.77756 | 14797 ft | 404 kts | 95° |
| 2026-05-04 15:05 | 29.68780 | 118.80964 | 14797 ft | 404 kts | 95° |
| 2026-05-04 15:05 | 29.68496 | 118.84153 | 14799 ft | 402 kts | 96° |
| 2026-05-04 15:05 | 29.68210 | 118.87325 | 14798 ft | 401 kts | 96° |
| 2026-05-04 15:06 | 29.67917 | 118.90522 | 14797 ft | 401 kts | 96° |
| 2026-05-04 15:06 | 29.67625 | 118.93736 | 14796 ft | 402 kts | 95° |
| 2026-05-04 15:06 | 29.67793 | 118.96925 | 14776 ft | 406 kts | 76° |
| 2026-05-04 15:07 | 29.70106 | 119.02774 | 14815 ft | 409 kts | 63° |
| 2026-05-04 15:07 | 29.71434 | 119.05671 | 14827 ft | 409 kts | 63° |
| 2026-05-04 15:07 | 29.72682 | 119.08388 | 14835 ft | 409 kts | 63° |
| 2026-05-04 15:07 | 29.73978 | 119.11226 | 14621 ft | 403 kts | 63° |
| 2026-05-04 15:08 | 29.75249 | 119.14027 | 13933 ft | 401 kts | 63° |
| 2026-05-04 15:08 | 29.76538 | 119.16882 | 13201 ft | 399 kts | 63° |
| 2026-05-04 15:08 | 29.77656 | 119.19365 | 12635 ft | 395 kts | 63° |
| 2026-05-04 15:08 | 29.78993 | 119.22338 | 12127 ft | 390 kts | 63° |
| 2026-05-04 15:09 | 29.80233 | 119.25099 | 11963 ft | 391 kts | 63° |
| 2026-05-04 15:09 | 29.81443 | 119.27798 | 11958 ft | 392 kts | 63° |
| 2026-05-04 15:09 | 29.82694 | 119.30589 | 11955 ft | 392 kts | 63° |
| 2026-05-04 15:10 | 29.85186 | 119.36153 | 11952 ft | 392 kts | 63° |
| 2026-05-04 15:10 | 29.86430 | 119.38935 | 11952 ft | 392 kts | 63° |
| 2026-05-04 15:10 | 29.88908 | 119.44484 | 11952 ft | 392 kts | 63° |
| 2026-05-04 15:11 | 29.90156 | 119.47279 | 11952 ft | 392 kts | 63° |
| 2026-05-04 15:11 | 29.91399 | 119.50069 | 11952 ft | 392 kts | 63° |
| 2026-05-04 15:11 | 29.92551 | 119.52653 | 11952 ft | 392 kts | 63° |
| 2026-05-04 15:11 | 29.93791 | 119.55440 | 11918 ft | 388 kts | 63° |
| 2026-05-04 15:12 | 29.95041 | 119.58251 | 11413 ft | 384 kts | 63° |
| 2026-05-04 15:12 | 29.95865 | 119.60108 | 10912 ft | 383 kts | 63° |
| 2026-05-04 15:12 | 29.97047 | 119.62791 | 10538 ft | 372 kts | 63° |
| 2026-05-04 15:12 | 29.98197 | 119.65393 | 10301 ft | 358 kts | 63° |
| 2026-05-04 15:13 | 29.99305 | 119.67905 | 10072 ft | 345 kts | 63° |
| 2026-05-04 15:13 | 30.00369 | 119.70319 | 9943 ft | 330 kts | 63° |
| 2026-05-04 15:13 | 30.01365 | 119.72577 | 9931 ft | 313 kts | 63° |
| 2026-05-04 15:13 | 30.02345 | 119.74796 | 9925 ft | 310 kts | 63° |
| 2026-05-04 15:14 | 30.03323 | 119.77007 | 9918 ft | 310 kts | 63° |
| 2026-05-04 15:14 | 30.04303 | 119.79215 | 9913 ft | 310 kts | 63° |
| 2026-05-04 15:14 | 30.05297 | 119.81424 | 9909 ft | 310 kts | 62° |
| 2026-05-04 15:14 | 30.06295 | 119.83635 | 9905 ft | 310 kts | 62° |
| 2026-05-04 15:15 | 30.07290 | 119.85841 | 9891 ft | 306 kts | 62° |
| 2026-05-04 15:15 | 30.08251 | 119.87971 | 9759 ft | 295 kts | 62° |
| 2026-05-04 15:15 | 30.09174 | 119.90022 | 9632 ft | 286 kts | 62° |
| 2026-05-04 15:16 | 30.10482 | 119.92923 | 9455 ft | 286 kts | 62° |
| 2026-05-04 15:16 | 30.11111 | 119.94301 | 9370 ft | 285 kts | 62° |
| 2026-05-04 15:17 | 30.16368 | 120.05955 | 8651 ft | 282 kts | 63° |
| 2026-05-04 15:17 | 30.17260 | 120.07947 | 8527 ft | 282 kts | 63° |
| 2026-05-04 15:18 | 30.18141 | 120.09914 | 8405 ft | 281 kts | 63° |
| 2026-05-04 15:18 | 30.18662 | 120.11080 | 8333 ft | 281 kts | 63° |
| 2026-05-04 15:19 | 30.21011 | 120.16325 | 8005 ft | 280 kts | 63° |
| 2026-05-04 15:19 | 30.23700 | 120.22368 | 7797 ft | 279 kts | 63° |
| 2026-05-04 15:20 | 30.24592 | 120.24374 | 7705 ft | 279 kts | 63° |
| 2026-05-04 15:21 | 30.30816 | 120.38386 | 6822 ft | 275 kts | 63° |
| 2026-05-04 15:22 | 30.31669 | 120.40311 | 6700 ft | 274 kts | 63° |
| 2026-05-04 15:22 | 30.32529 | 120.42255 | 6525 ft | 271 kts | 63° |
| 2026-05-04 15:22 | 30.34251 | 120.46150 | 5729 ft | 271 kts | 63° |
| 2026-05-04 15:23 | 30.35099 | 120.48067 | 5366 ft | 269 kts | 63° |
| 2026-05-04 15:23 | 30.35948 | 120.49986 | 5001 ft | 268 kts | 63° |
| 2026-05-04 15:23 | 30.36788 | 120.51887 | 4803 ft | 265 kts | 63° |
| 2026-05-04 15:23 | 30.37629 | 120.53794 | 4767 ft | 267 kts | 63° |
| 2026-05-04 15:24 | 30.39290 | 120.57562 | 4390 ft | 256 kts | 63° |
| 2026-05-04 15:24 | 30.40832 | 120.61063 | 4286 ft | 229 kts | 63° |
| 2026-05-04 15:25 | 30.41525 | 120.62645 | 4270 ft | 214 kts | 65° |
| 2026-05-04 15:25 | 30.41832 | 120.64259 | 4231 ft | 199 kts | 96° |
| 2026-05-04 15:25 | 30.41391 | 120.65713 | 4139 ft | 192 kts | 128° |
| 2026-05-04 15:26 | 30.39212 | 120.67406 | 4014 ft | 190 kts | 154° |
| 2026-05-04 15:26 | 30.38413 | 120.67852 | 4015 ft | 190 kts | 156° |
| 2026-05-04 15:27 | 30.33768 | 120.63519 | 3137 ft | 186 kts | 244° |
| 2026-05-04 15:28 | 30.32623 | 120.60820 | 2954 ft | 180 kts | 244° |
| 2026-05-04 15:30 | 30.28944 | 120.52367 | 1615 ft | 135 kts | 243° |
| 2026-05-04 15:31 | 30.26741 | 120.47414 | 699 ft | 133 kts | 243° |
| 2026-05-04 15:31 | 30.26319 | 120.46467 | 521 ft | 133 kts | 243° |
| 2026-05-04 15:32 | 30.25061 | 120.43630 | 32 ft | 128 kts | 243° |
| 2026-05-04 15:32 | 30.24521 | 120.42416 | 29 ft | 38 kts | 243° |
| 2026-05-04 15:33 | 30.24297 | 120.41959 | 29 ft | 26 kts | 231° |
| 2026-05-04 15:34 | 30.24133 | 120.41801 | 29 ft | 6 kts | 198° |
| 2026-05-04 15:34 | 30.24088 | 120.41808 | 29 ft | 4 kts | 139° |
| 2026-05-04 15:34 | 30.24099 | 120.41898 | 29 ft | 7 kts | 62° |
| 2026-05-04 15:35 | 30.24153 | 120.42019 | 29 ft | 9 kts | 63° |
| 2026-05-04 15:35 | 30.24177 | 120.42077 | 29 ft | 6 kts | 73° |
| 2026-05-04 15:35 | 30.24167 | 120.42122 | 29 ft | 5 kts | 135° |
| 2026-05-04 15:36 | 30.24115 | 120.42155 | 29 ft | 6 kts | 153° |